Time;durP1;ratioP1;P1;durP2;ratioP2;P2;SDS_P1;SDS_P2;PMS_P1;PMS_P2;Temp;Humidity;BMP_temperature;BMP_pressure;BME280_temperature;BME280_humidity;BME280_pressure;Samples;Min_cycle;Max_cycle;Signal;HPM_P1;HPM_P2
2022/10/01 00:01:05;;;;;;;10.85;1.40;;;37.90;51.70;;;;;;5062222;28;20025;-63
2022/10/01 00:03:33;;;;;;;9.52;1.30;;;37.80;51.40;;;;;;5057916;28;20039;-62
2022/10/01 00:06:00;;;;;;;15.90;2.30;;;37.70;52.00;;;;;;5054381;28;20021;-63
2022/10/01 00:08:28;;;;;;;18.17;2.15;;;37.50;52.40;;;;;;5058903;28;20024;-63
2022/10/01 00:10:55;;;;;;;6.53;1.92;;;37.50;52.80;;;;;;5050945;28;20421;-61
2022/10/01 00:13:22;;;;;;;9.38;1.80;;;37.40;53.10;;;;;;5054008;28;20021;-63
2022/10/01 00:15:48;;;;;;;14.60;1.92;;;37.30;53.00;;;;;;5049938;28;20035;-63
2022/10/01 00:18:14;;;;;;;9.95;1.75;;;37.30;53.60;;;;;;5051717;28;20027;-63
2022/10/01 00:20:42;;;;;;;10.77;1.50;;;37.20;53.20;;;;;;5053387;28;20485;-64
2022/10/01 00:23:13;;;;;;;13.30;1.90;;;37.10;53.30;;;;;;5059042;28;20087;-63
2022/10/01 00:25:40;;;;;;;9.25;1.40;;;37.10;53.50;;;;;;5058661;28;20086;-63
2022/10/01 00:28:07;;;;;;;9.77;1.83;;;37.10;53.00;;;;;;5052178;28;20394;-64
2022/10/01 00:30:33;;;;;;;6.25;1.58;;;36.90;53.20;;;;;;5053233;28;20500;-63
2022/10/01 00:32:59;;;;;;;9.60;1.90;;;37.00;53.60;;;;;;5052882;28;20072;-63
2022/10/01 00:35:26;;;;;;;11.40;1.50;;;36.80;53.40;;;;;;5049882;28;20082;-62
2022/10/01 00:37:52;;;;;;;5.93;1.30;;;36.80;53.80;;;;;;5053970;28;20502;-62
2022/10/01 00:40:20;;;;;;;7.18;1.23;;;36.80;54.00;;;;;;5050752;28;20025;-63
2022/10/01 00:42:47;;;;;;;9.73;1.80;;;36.60;53.90;;;;;;5053265;28;20020;-62
2022/10/01 00:45:15;;;;;;;5.82;1.88;;;36.50;53.90;;;;;;5052313;28;20021;-63
2022/10/01 00:47:50;;;;;;;6.80;1.80;;;36.50;54.20;;;;;;5053608;28;20107;-62
2022/10/01 00:50:23;;;;;;;7.63;1.67;;;36.40;54.50;;;;;;5050403;28;20513;-63
2022/10/01 00:52:58;;;;;;;10.52;1.88;;;36.40;54.70;;;;;;5049770;28;20025;-64
2022/10/01 00:55:36;;;;;;;9.18;1.55;;;36.30;54.90;;;;;;5054486;28;20068;-64
2022/10/01 00:58:09;;;;;;;8.02;1.98;;;36.00;74.60;;;;;;5056455;28;20463;-63
2022/10/01 01:00:36;;;;;;;13.07;2.05;;;36.10;54.90;;;;;;5053335;28;20028;-64
2022/10/01 01:03:05;;;;;;;13.60;1.88;;;36.10;54.90;;;;;;5054301;28;20098;-64
2022/10/01 01:05:31;;;;;;;9.40;1.95;;;;;;;;;;5062359;28;20028;-63
2022/10/01 01:08:00;;;;;;;10.23;1.73;;;35.90;54.80;;;;;;5062635;28;20090;-63
2022/10/01 01:11:01;;;;;;;11.85;1.45;;;35.90;76.80;;;;;;5058297;28;20028;-63
2022/10/01 01:14:06;;;;;;;12.13;1.40;;;35.70;55.40;;;;;;5034493;28;20768;-62
2022/10/01 01:16:44;;;;;;;22.83;1.98;;;35.60;58.20;;;;;;5044968;28;20409;-62
2022/10/01 01:19:13;;;;;;;12.10;2.10;;;35.60;74.50;;;;;;5054785;28;20039;-62
2022/10/01 01:21:46;;;;;;;13.25;1.90;;;35.50;73.50;;;;;;5052750;28;20028;-62
2022/10/01 01:24:39;;;;;;;8.82;2.00;;;35.00;75.50;;;;;;5051058;28;20025;-61
2022/10/01 01:27:15;;;;;;;15.02;2.28;;;35.20;66.80;;;;;;5055139;28;20032;-62
2022/10/01 01:29:42;;;;;;;14.15;2.35;;;;;;;;;;5057582;28;20036;-63
2022/10/01 01:32:30;;;;;;;13.68;2.20;;;35.10;75.30;;;;;;5052400;28;20052;-65
2022/10/01 01:34:59;;;;;;;12.90;2.30;;;35.20;57.20;;;;;;5057174;28;20070;-65
2022/10/01 01:37:30;;;;;;;27.40;2.35;;;35.10;57.60;;;;;;5057803;28;20024;-65
2022/10/01 01:40:00;;;;;;;12.55;1.65;;;35.10;72.30;;;;;;5057046;28;20028;-63
2022/10/01 01:42:36;;;;;;;10.90;2.50;;;35.00;77.00;;;;;;5054340;28;20398;-63
2022/10/01 01:45:08;;;;;;;22.35;2.65;;;35.00;77.40;;;;;;5054074;28;20044;-62
2022/10/01 01:47:39;;;;;;;22.17;2.90;;;34.90;78.00;;;;;;5055832;28;20033;-66
2022/10/01 01:50:07;;;;;;;17.02;2.22;;;34.80;78.30;;;;;;5050672;28;20029;-63
2022/10/01 01:52:34;;;;;;;20.42;2.72;;;35.00;78.00;;;;;;5056783;28;20546;-64
2022/10/01 01:55:06;;;;;;;26.70;3.10;;;34.70;59.30;;;;;;5057814;28;20035;-65
2022/10/01 01:57:32;;;;;;;22.70;2.70;;;34.60;79.90;;;;;;5062200;28;20505;-64
2022/10/01 01:59:59;;;;;;;28.77;2.70;;;34.60;81.00;;;;;;5063361;28;20056;-62
2022/10/01 02:02:31;;;;;;;22.33;2.50;;;34.40;81.50;;;;;;5061162;28;20067;-65
2022/10/01 02:05:06;;;;;;;14.95;3.35;;;34.50;61.20;;;;;;5064740;28;20047;-63
2022/10/01 02:07:53;;;;;;;24.30;2.38;;;34.40;83.40;;;;;;5058802;28;20036;-65
2022/10/01 02:11:01;;;;;;;20.85;2.92;;;34.30;83.00;;;;;;5058573;28;20028;-64
2022/10/01 02:13:53;;;;;;;17.20;2.83;;;34.20;62.20;;;;;;5059880;28;20029;-63
2022/10/01 02:16:38;;;;;;;31.23;3.22;;;34.30;81.10;;;;;;5057416;28;20487;-64
2022/10/01 02:19:33;;;;;;;17.20;2.10;;;34.10;73.50;;;;;;5060286;28;20035;-62
2022/10/01 02:22:12;;;;;;;19.25;2.40;;;33.70;79.60;;;;;;5052889;28;20128;-61
2022/10/01 02:24:47;;;;;;;18.52;2.53;;;33.90;81.70;;;;;;5060681;28;20354;-62
2022/10/01 02:27:23;;;;;;;12.18;2.45;;;33.90;82.40;;;;;;5054921;28;20035;-63
2022/10/01 02:29:51;;;;;;;23.92;2.47;;;33.90;82.60;;;;;;5059780;28;20040;-62
2022/10/01 02:32:19;;;;;;;12.25;2.22;;;33.90;82.40;;;;;;5057954;28;20393;-62
2022/10/01 02:34:48;;;;;;;24.90;2.47;;;33.80;83.20;;;;;;5059373;28;20374;-62
2022/10/01 02:37:19;;;;;;;17.08;2.45;;;33.60;63.80;;;;;;5056456;28;20486;-63
2022/10/01 02:39:49;;;;;;;29.95;3.00;;;33.70;64.60;;;;;;5059191;28;20159;-62
2022/10/01 02:42:17;;;;;;;26.70;2.85;;;33.70;82.90;;;;;;5059712;28;20029;-63
2022/10/01 02:44:45;;;;;;;21.13;3.10;;;33.50;65.00;;;;;;5055865;28;20486;-63
2022/10/01 02:47:22;;;;;;;24.08;3.22;;;33.50;65.80;;;;;;5055195;28;20394;-62
2022/10/01 02:49:50;;;;;;;32.40;3.55;;;33.40;83.00;;;;;;5062723;28;20057;-63
2022/10/01 02:52:34;;;;;;;20.88;2.70;;;33.40;85.20;;;;;;5061673;28;20033;-62
2022/10/01 02:55:16;;;;;;;25.08;2.72;;;33.40;67.00;;;;;;5062991;28;20028;-62
2022/10/01 02:57:43;;;;;;;26.33;3.08;;;33.20;66.70;;;;;;5059057;28;20021;-62
2022/10/01 03:00:12;;;;;;;25.92;4.43;;;33.10;84.40;;;;;;5059289;28;20470;-64
2022/10/01 03:02:38;;;;;;;15.18;2.72;;;32.90;85.10;;;;;;5061512;28;20162;-62
2022/10/01 03:05:06;;;;;;;16.15;3.50;;;33.10;82.20;;;;;;5058583;28;20112;-63
2022/10/01 03:07:34;;;;;;;25.73;3.85;;;33.10;68.30;;;;;;5065307;28;20038;-62
2022/10/01 03:10:02;;;;;;;19.00;2.10;;;33.10;68.70;;;;;;5060164;28;20031;-62
2022/10/01 03:12:28;;;;;;;21.10;2.45;;;33.00;69.20;;;;;;5062735;28;20020;-62
2022/10/01 03:14:55;;;;;;;13.57;2.45;;;33.00;86.70;;;;;;5059052;28;20021;-62
2022/10/01 03:17:21;;;;;;;18.00;2.38;;;32.80;70.50;;;;;;5059169;28;20091;-61
2022/10/01 03:19:48;;;;;;;15.88;2.25;;;32.80;71.00;;;;;;5055064;28;20028;-62
2022/10/01 03:22:21;;;;;;;20.65;3.38;;;32.80;71.30;;;;;;5059017;28;20410;-63
2022/10/01 03:24:53;;;;;;;16.58;2.55;;;32.60;88.70;;;;;;5056743;28;20020;-63
2022/10/01 03:27:21;;;;;;;21.65;4.05;;;32.40;88.90;;;;;;5060999;28;20028;-62
2022/10/01 03:29:48;;;;;;;15.02;3.83;;;32.60;72.70;;;;;;5057716;28;20047;-63
2022/10/01 03:32:14;;;;;;;15.20;5.22;;;32.60;73.00;;;;;;5055026;28;20041;-63
2022/10/01 03:34:41;;;;;;;8.57;1.90;;;32.50;73.30;;;;;;5057779;28;20032;-63
2022/10/01 03:37:08;;;;;;;13.50;2.10;;;32.50;74.00;;;;;;5067199;28;20025;-63
2022/10/01 03:39:34;;;;;;;11.57;2.97;;;32.40;74.60;;;;;;5062556;28;20025;-63
2022/10/01 03:42:01;;;;;;;18.33;3.13;;;32.30;75.20;;;;;;5058345;28;20051;-63
2022/10/01 03:44:27;;;;;;;14.02;3.10;;;32.30;75.70;;;;;;5061703;28;20486;-65
2022/10/01 03:46:54;;;;;;;9.18;2.30;;;32.30;75.90;;;;;;5057860;28;20571;-64
2022/10/01 03:49:20;;;;;;;8.20;2.20;;;32.20;76.30;;;;;;5060029;28;20031;-66
2022/10/01 03:51:47;;;;;;;15.18;2.45;;;32.20;76.80;;;;;;5058517;28;20487;-66
2022/10/01 03:54:14;;;;;;;13.65;2.65;;;32.10;77.00;;;;;;5051729;28;20036;-64
2022/10/01 03:56:41;;;;;;;12.65;2.25;;;32.10;77.00;;;;;;5049984;28;20025;-64
2022/10/01 03:59:09;;;;;;;16.77;2.03;;;32.10;76.80;;;;;;5050147;28;20060;-64
2022/10/01 04:01:36;;;;;;;16.38;1.83;;;32.00;77.20;;;;;;5056211;28;20029;-63
2022/10/01 04:04:02;;;;;;;9.13;2.25;;;32.00;77.20;;;;;;5059260;28;20024;-62
2022/10/01 04:06:29;;;;;;;10.13;2.03;;;32.00;77.50;;;;;;5056312;28;20029;-62
2022/10/01 04:08:56;;;;;;;9.55;2.00;;;32.00;77.70;;;;;;5056235;28;20039;-63
2022/10/01 04:11:23;;;;;;;8.13;1.90;;;31.90;77.50;;;;;;5054952;28;20032;-64
2022/10/01 04:13:50;;;;;;;10.80;2.75;;;31.90;77.40;;;;;;5055465;28;20091;-62
2022/10/01 04:16:16;;;;;;;11.10;2.33;;;31.90;77.80;;;;;;5050983;28;20025;-62
2022/10/01 04:18:43;;;;;;;16.25;2.58;;;31.90;78.40;;;;;;5055492;28;20035;-63
2022/10/01 04:21:11;;;;;;;8.50;2.05;;;31.80;78.40;;;;;;5051186;28;20055;-62
2022/10/01 04:23:38;;;;;;;10.23;2.50;;;31.90;78.60;;;;;;5056002;28;20481;-64
2022/10/01 04:26:04;;;;;;;12.80;2.47;;;31.80;77.90;;;;;;5057788;28;20466;-62
2022/10/01 04:28:31;;;;;;;9.65;2.17;;;31.80;78.20;;;;;;5051765;28;20441;-62
2022/10/01 04:33:42;;;;;;;11.43;2.60;;;31.70;79.10;;;;;;5051991;28;20088;-64
2022/10/01 04:36:08;;;;;;;11.27;2.38;;;31.70;80.00;;;;;;5051934;28;20029;-62
2022/10/01 04:38:34;;;;;;;11.90;2.53;;;31.50;80.40;;;;;;5054953;28;20401;-65
2022/10/01 04:41:01;;;;;;;13.20;2.53;;;31.60;80.80;;;;;;5055436;28;20024;-63
2022/10/01 04:43:27;;;;;;;15.10;3.08;;;31.50;81.30;;;;;;5053707;28;20029;-62
2022/10/01 04:45:54;;;;;;;11.07;2.60;;;31.50;81.80;;;;;;5060510;28;20786;-63
2022/10/01 04:48:20;;;;;;;11.13;2.53;;;31.50;82.40;;;;;;5058563;28;20363;-64
2022/10/01 04:50:46;;;;;;;7.63;2.17;;;31.40;82.80;;;;;;5059108;28;20024;-66
2022/10/01 04:53:15;;;;;;;32.90;3.90;;;31.50;83.10;;;;;;5059425;28;20068;-65
2022/10/01 04:55:42;;;;;;;10.82;4.00;;;31.40;83.60;;;;;;5049335;28;20090;-64
2022/10/01 04:58:09;;;;;;;16.02;2.88;;;31.40;83.80;;;;;;5059553;28;20021;-66
2022/10/01 05:00:36;;;;;;;12.35;2.47;;;31.30;84.50;;;;;;5053750;28;20088;-64
2022/10/01 05:03:02;;;;;;;22.23;2.45;;;31.20;85.60;;;;;;5063216;28;20021;-65
2022/10/01 05:05:31;;;;;;;12.57;2.58;;;31.30;84.80;;;;;;5056495;28;20473;-63
2022/10/01 05:07:58;;;;;;;8.48;1.90;;;31.20;85.10;;;;;;5054932;28;20087;-63
2022/10/01 05:10:25;;;;;;;11.65;2.40;;;;;;;;;;5056413;28;20025;-66
2022/10/01 05:12:51;;;;;;;4.97;1.77;;;31.40;96.00;;;;;;5056491;28;20082;-64
2022/10/01 05:15:18;;;;;;;15.65;2.15;;;31.40;97.10;;;;;;5052763;28;20063;-64
2022/10/01 05:17:46;;;;;;;9.40;2.30;;;31.10;84.70;;;;;;5058217;28;20048;-63
2022/10/01 05:20:19;;;;;;;16.27;2.90;;;31.10;91.00;;;;;;5053469;28;20438;-65
2022/10/01 05:22:46;;;;;;;7.45;2.50;;;31.00;96.50;;;;;;5050455;28;20036;-63
2022/10/01 05:25:13;;;;;;;5.88;1.67;;;31.20;83.90;;;;;;5052169;28;20029;-65
2022/10/01 05:27:39;;;;;;;13.00;1.80;;;31.10;83.80;;;;;;5050270;28;20033;-63
2022/10/01 05:30:09;;;;;;;6.85;1.40;;;31.10;84.50;;;;;;5056968;28;20095;-65
2022/10/01 05:32:36;;;;;;;4.97;1.48;;;31.10;84.30;;;;;;5056473;28;20040;-63
2022/10/01 05:35:04;;;;;;;9.57;2.10;;;31.10;84.30;;;;;;5057009;28;20021;-66
2022/10/01 05:37:30;;;;;;;13.98;1.95;;;31.10;84.40;;;;;;5054151;28;20025;-63
2022/10/01 05:39:57;;;;;;;5.13;1.65;;;31.10;84.40;;;;;;5054764;28;20458;-65
2022/10/01 05:42:23;;;;;;;8.77;2.50;;;31.00;84.50;;;;;;5059330;28;20025;-64
2022/10/01 05:44:50;;;;;;;10.90;2.05;;;31.00;84.60;;;;;;5053210;28;20025;-64
2022/10/01 05:47:17;;;;;;;8.38;1.67;;;31.00;84.30;;;;;;5052714;28;20036;-64
2022/10/01 05:49:43;;;;;;;8.73;1.90;;;31.00;84.20;;;;;;5050044;28;21296;-64
2022/10/01 05:52:11;;;;;;;11.68;2.22;;;31.00;83.80;;;;;;5058322;28;20486;-63
2022/10/01 05:54:37;;;;;;;7.75;2.10;;;31.00;83.50;;;;;;5058864;28;20028;-65
2022/10/01 05:57:05;;;;;;;10.30;2.22;;;31.00;83.20;;;;;;5057095;28;20382;-65
2022/10/01 05:59:31;;;;;;;6.55;2.08;;;31.00;83.50;;;;;;5052038;28;20446;-64
2022/10/01 06:01:58;;;;;;;8.77;2.00;;;31.00;83.30;;;;;;5060211;28;20162;-64
2022/10/01 06:04:24;;;;;;;12.25;2.60;;;31.00;83.20;;;;;;5055651;28;20021;-64
2022/10/01 06:06:52;;;;;;;6.70;1.70;;;31.00;83.40;;;;;;5058627;28;20025;-64
2022/10/01 06:09:18;;;;;;;6.68;1.83;;;31.00;83.40;;;;;;5059428;28;20025;-63
2022/10/01 06:11:47;;;;;;;9.20;2.45;;;31.00;83.50;;;;;;5057164;28;20473;-65
2022/10/01 06:14:14;;;;;;;7.97;2.08;;;30.90;83.20;;;;;;5055011;28;20024;-65
2022/10/01 06:16:41;;;;;;;7.80;1.85;;;30.90;83.00;;;;;;5060758;28;20156;-66
2022/10/01 06:19:07;;;;;;;4.40;2.13;;;31.00;83.00;;;;;;5054525;28;20020;-64
2022/10/01 06:21:34;;;;;;;15.40;2.20;;;30.90;82.80;;;;;;5053107;28;20039;-64
2022/10/01 06:24:01;;;;;;;8.27;2.03;;;30.90;82.70;;;;;;5056494;28;20021;-63
2022/10/01 06:26:27;;;;;;;7.47;2.30;;;30.90;82.50;;;;;;5054940;28;20021;-66
2022/10/01 06:28:53;;;;;;;8.18;2.10;;;30.90;82.50;;;;;;5055036;28;20359;-64
2022/10/01 06:31:20;;;;;;;14.02;2.10;;;31.00;95.30;;;;;;5052448;28;20493;-63
2022/10/01 06:33:47;;;;;;;14.13;2.45;;;30.70;91.10;;;;;;5048800;28;20094;-65
2022/10/01 06:36:13;;;;;;;17.42;2.67;;;30.80;95.20;;;;;;5050688;28;20029;-65
2022/10/01 06:38:41;;;;;;;14.27;2.33;;;30.80;95.60;;;;;;5054539;28;20056;-66
2022/10/01 06:41:09;;;;;;;7.75;2.20;;;30.50;95.50;;;;;;5059180;28;20033;-65
2022/10/01 06:43:35;;;;;;;8.70;1.90;;;30.80;94.80;;;;;;5061307;28;20029;-62
2022/10/01 06:46:03;;;;;;;8.70;1.90;;;30.90;96.00;;;;;;5065180;28;20389;-63
2022/10/01 06:48:30;;;;;;;7.30;1.92;;;31.30;94.20;;;;;;5061819;28;20032;-65
2022/10/01 06:50:57;;;;;;;8.18;1.70;;;30.80;81.50;;;;;;5052929;28;20390;-66
2022/10/01 06:53:25;;;;;;;6.40;2.00;;;30.30;93.40;;;;;;5061554;28;22004;-67
2022/10/01 06:55:52;;;;;;;8.35;2.05;;;31.00;94.10;;;;;;5071257;28;20128;-63
2022/10/01 06:58:25;;;;;;;12.25;1.88;;;30.70;82.20;;;;;;5051331;28;20028;-63
2022/10/01 07:00:56;;;;;;;9.70;2.00;;;30.70;82.20;;;;;;5059534;28;20494;-63
2022/10/01 07:03:23;;;;;;;5.03;2.10;;;30.70;82.40;;;;;;5057813;28;20029;-65
2022/10/01 07:05:50;;;;;;;11.27;2.05;;;30.70;82.20;;;;;;5058940;28;20036;-64
2022/10/01 07:08:16;;;;;;;7.75;2.10;;;30.70;82.40;;;;;;5059772;28;20027;-66
2022/10/01 07:10:44;;;;;;;12.25;1.83;;;30.70;83.40;;;;;;5054915;28;20021;-65
2022/10/01 07:13:15;;;;;;;10.57;2.63;;;30.60;82.70;;;;;;5061606;28;20039;-64
2022/10/01 07:15:42;;;;;;;8.73;2.15;;;30.60;82.30;;;;;;5056079;28;20025;-64
2022/10/01 07:18:11;;;;;;;10.50;2.45;;;30.60;83.20;;;;;;5056213;28;20478;-64
2022/10/01 07:20:39;;;;;;;10.32;2.13;;;30.50;83.90;;;;;;5060884;28;20020;-65
2022/10/01 07:23:11;;;;;;;8.23;2.50;;;30.50;83.70;;;;;;5059840;28;20435;-64
2022/10/01 07:25:39;;;;;;;11.57;2.25;;;30.50;84.10;;;;;;5056908;28;20021;-64
2022/10/01 07:28:14;;;;;;;5.70;2.30;;;30.50;83.90;;;;;;5059185;28;20021;-65
2022/10/01 07:30:42;;;;;;;10.63;2.75;;;30.40;84.40;;;;;;5055039;28;20087;-65
2022/10/01 07:33:09;;;;;;;16.60;2.45;;;30.30;84.60;;;;;;5054907;28;20127;-64
2022/10/01 07:35:38;;;;;;;9.00;2.63;;;30.40;85.00;;;;;;5060844;28;20017;-66
2022/10/01 07:38:06;;;;;;;7.38;2.60;;;30.30;85.40;;;;;;5061595;28;20021;-63
2022/10/01 07:40:32;;;;;;;7.55;2.63;;;30.20;89.70;;;;;;5057067;28;20025;-66
2022/10/01 07:42:59;;;;;;;4.57;2.17;;;30.30;91.10;;;;;;5056321;28;20109;-65
2022/10/01 07:45:26;;;;;;;9.13;2.50;;;30.20;91.80;;;;;;5060463;28;20021;-65
2022/10/01 07:47:58;;;;;;;10.32;2.85;;;30.20;92.50;;;;;;5059253;28;20025;-63
2022/10/01 07:50:26;;;;;;;12.23;2.63;;;30.00;93.30;;;;;;5058305;28;20020;-63
2022/10/01 07:52:57;;;;;;;7.35;2.80;;;29.90;93.90;;;;;;5057969;28;20032;-65
2022/10/01 07:55:26;;;;;;;13.15;2.72;;;29.90;94.40;;;;;;5057688;28;20025;-65
2022/10/01 07:57:55;;;;;;;4.72;2.38;;;29.90;94.70;;;;;;5056166;28;20106;-65
2022/10/01 08:00:22;;;;;;;15.05;4.28;;;29.70;95.30;;;;;;5052003;28;20060;-64
2022/10/01 08:02:54;;;;;;;7.88;2.33;;;29.70;95.60;;;;;;5053515;28;20390;-64
2022/10/01 08:05:24;;;;;;;6.72;2.60;;;29.60;95.80;;;;;;5061426;28;20028;-65
2022/10/01 08:07:51;;;;;;;10.52;2.85;;;29.60;96.00;;;;;;5054883;28;20037;-64
2022/10/01 08:10:19;;;;;;;5.65;2.65;;;29.50;96.40;;;;;;5056885;28;20032;-64
2022/10/01 08:12:45;;;;;;;8.68;3.05;;;29.40;96.90;;;;;;5054127;28;20600;-66
2022/10/01 08:15:16;;;;;;;10.02;2.20;;;29.40;97.50;;;;;;5061731;28;20523;-64
2022/10/01 08:17:43;;;;;;;9.80;2.50;;;29.60;99.90;;;;;;5064528;28;20071;-66
2022/10/01 08:20:12;;;;;;;6.28;2.28;;;29.40;97.50;;;;;;5056368;28;20031;-64
2022/10/01 08:22:39;;;;;;;7.55;2.70;;;29.40;97.60;;;;;;5058868;28;20111;-63
2022/10/01 08:25:06;;;;;;;10.43;2.55;;;29.40;98.00;;;;;;5057392;28;20024;-63
2022/10/01 08:27:32;;;;;;;6.65;2.63;;;29.30;98.30;;;;;;5060602;28;20362;-64
2022/10/01 08:29:59;;;;;;;7.07;2.30;;;29.10;98.90;;;;;;5059016;28;20036;-64
2022/10/01 08:32:26;;;;;;;4.82;2.72;;;29.10;99.60;;;;;;5058989;28;20485;-64
2022/10/01 08:34:57;;;;;;;7.57;2.53;;;29.00;99.90;;;;;;5060400;28;20043;-63
2022/10/01 08:37:28;;;;;;;11.15;2.60;;;29.00;99.90;;;;;;5053103;28;20031;-64
2022/10/01 08:39:55;;;;;;;6.15;2.38;;;28.90;99.90;;;;;;5054882;28;20029;-65
2022/10/01 08:42:45;;;;;;;9.15;2.53;;;28.90;99.90;;;;;;5054992;28;20517;-64
2022/10/01 08:45:19;;;;;;;6.95;2.53;;;28.90;99.90;;;;;;5058348;28;20107;-63
2022/10/01 08:48:00;;;;;;;11.63;2.75;;;28.90;99.90;;;;;;5055411;28;20037;-65
2022/10/01 08:50:40;;;;;;;5.85;2.20;;;28.90;99.90;;;;;;5056222;28;20104;-64
2022/10/01 08:53:14;;;;;;;10.10;2.17;;;28.90;99.90;;;;;;5054806;28;20116;-63
2022/10/01 08:55:41;;;;;;;7.82;2.58;;;28.90;99.90;;;;;;5057440;28;20390;-66
2022/10/01 08:58:13;;;;;;;11.82;2.78;;;28.90;99.90;;;;;;5058427;28;20078;-65
2022/10/01 09:00:43;;;;;;;10.45;2.50;;;28.80;99.90;;;;;;5054988;28;20036;-64
2022/10/01 09:03:14;;;;;;;6.90;2.58;;;28.80;99.90;;;;;;5051150;28;20020;-64
2022/10/01 09:05:40;;;;;;;8.25;2.58;;;28.80;99.90;;;;;;5054192;28;20024;-63
2022/10/01 09:08:43;;;;;;;8.10;2.60;;;28.80;99.90;;;;;;5056097;28;20024;-64
2022/10/01 09:11:31;;;;;;;9.57;2.17;;;28.70;99.90;;;;;;5055410;28;20111;-63
2022/10/01 09:14:16;;;;;;;13.18;2.97;;;28.70;99.90;;;;;;5058103;28;20504;-65
2022/10/01 09:17:09;;;;;;;9.40;2.85;;;28.70;99.90;;;;;;5053552;28;20049;-65
2022/10/01 09:20:00;;;;;;;7.82;2.53;;;28.70;99.90;;;;;;5060673;28;20028;-61
2022/10/01 09:23:01;;;;;;;9.80;3.08;;;28.60;99.90;;;;;;5056793;28;20501;-65
2022/10/01 09:25:29;;;;;;;15.00;3.20;;;28.60;99.90;;;;;;5038674;28;20056;-65
2022/10/01 09:28:22;;;;;;;5.82;2.75;;;28.60;99.90;;;;;;5057128;28;20025;-66
2022/10/01 09:31:14;;;;;;;11.23;3.13;;;28.50;99.90;;;;;;5047194;28;20584;-67
2022/10/01 09:34:06;;;;;;;8.77;3.30;;;28.60;99.90;;;;;;5058245;28;20409;-64
2022/10/01 09:37:13;;;;;;;9.88;2.95;;;28.60;99.90;;;;;;5055627;28;20028;-65
2022/10/01 09:40:05;;;;;;;7.25;3.47;;;28.60;99.90;;;;;;5057415;28;20054;-65
2022/10/01 09:42:32;;;;;;;10.60;3.15;;;28.10;99.90;;;;;;5054648;28;20111;-63
2022/10/01 09:44:59;;;;;;;9.50;3.38;;;28.50;99.90;;;;;;5055522;28;20025;-65
2022/10/01 09:47:25;;;;;;;11.90;3.30;;;28.60;99.90;;;;;;5056912;28;20028;-66
2022/10/01 09:49:52;;;;;;;12.55;3.08;;;28.40;99.90;;;;;;5058660;28;20104;-65
2022/10/01 09:52:35;;;;;;;9.43;3.28;;;28.50;99.90;;;;;;5053433;28;20037;-65
2022/10/01 09:55:10;;;;;;;8.48;3.55;;;28.30;99.90;;;;;;5056790;28;20071;-65
2022/10/01 09:57:42;;;;;;;10.77;3.25;;;28.40;99.90;;;;;;5055596;28;20022;-63
2022/10/01 10:00:17;;;;;;;7.85;3.03;;;28.40;99.90;;;;;;5058260;28;20025;-65
2022/10/01 10:02:46;;;;;;;12.40;3.28;;;28.90;99.90;;;;;;5047748;28;20383;-65
2022/10/01 10:05:25;;;;;;;11.88;3.35;;;28.00;99.90;;;;;;5059788;28;20025;-64
2022/10/01 10:08:09;;;;;;;8.23;3.45;;;27.90;99.90;;;;;;5058385;28;20035;-66
2022/10/01 10:10:38;;;;;;;11.95;3.88;;;28.50;99.90;;;;;;5050361;28;20029;-63
2022/10/01 10:13:12;;;;;;;7.93;3.40;;;28.00;99.90;;;;;;5061028;28;20029;-66
2022/10/01 10:15:56;;;;;;;7.10;3.40;;;28.00;99.90;;;;;;5053366;28;20021;-66
2022/10/01 10:18:37;;;;;;;12.98;4.13;;;28.80;99.90;;;;;;5059554;28;20028;-65
2022/10/01 10:21:15;;;;;;;7.10;3.17;;;28.40;99.90;;;;;;5059762;28;20031;-63
2022/10/01 10:23:53;;;;;;;7.07;3.30;;;28.40;99.90;;;;;;5060952;28;20032;-65
2022/10/01 10:26:41;;;;;;;10.27;4.18;;;28.60;99.90;;;;;;5058191;28;21708;-65
2022/10/01 10:29:25;;;;;;;6.10;3.88;;;28.30;99.90;;;;;;5058136;28;20040;-62
2022/10/01 10:31:54;;;;;;;11.45;4.22;;;28.30;99.90;;;;;;5055577;28;20039;-65
2022/10/01 10:34:24;;;;;;;11.38;3.92;;;28.50;99.90;;;;;;5058862;28;20029;-62
2022/10/01 10:36:58;;;;;;;19.52;4.30;;;28.10;99.90;;;;;;5060273;28;20025;-64
2022/10/01 10:39:46;;;;;;;8.20;4.13;;;28.40;99.90;;;;;;5061338;28;20377;-65
2022/10/01 10:42:17;;;;;;;10.52;4.00;;;28.40;99.90;;;;;;5062207;28;20380;-65
2022/10/01 10:44:48;;;;;;;8.13;3.88;;;28.10;99.90;;;;;;5058881;28;20028;-66
2022/10/01 10:47:17;;;;;;;13.15;4.72;;;28.10;99.90;;;;;;5056603;28;20061;-65
2022/10/01 10:50:15;;;;;;;13.23;5.00;;;28.10;99.90;;;;;;5058969;28;20070;-66
2022/10/01 10:52:41;;;;;;;11.80;4.57;;;28.30;99.90;;;;;;5038427;28;20052;-64
2022/10/01 10:55:20;;;;;;;13.65;5.30;;;28.10;99.90;;;;;;5059323;28;20020;-64
2022/10/01 10:57:47;;;;;;;10.25;6.18;;;28.10;99.90;;;;;;5061485;28;20104;-65
2022/10/01 11:00:17;;;;;;;14.25;7.85;;;28.10;99.90;;;;;;5054154;28;20035;-65
2022/10/01 11:02:59;;;;;;;16.60;7.45;;;28.00;99.90;;;;;;5059934;28;20029;-65
2022/10/01 11:05:31;;;;;;;14.18;10.30;;;28.10;99.90;;;;;;5056310;28;20641;-66
2022/10/01 11:08:04;;;;;;;27.58;13.52;;;28.10;99.90;;;;;;5060241;28;20060;-64
2022/10/01 11:10:52;;;;;;;19.83;13.10;;;28.10;99.90;;;;;;5056067;28;20021;-65
2022/10/01 11:13:50;;;;;;;20.55;11.48;;;28.10;99.90;;;;;;5060232;28;20098;-63
2022/10/01 11:16:28;;;;;;;10.70;5.50;;;28.10;99.90;;;;;;5061867;28;20060;-66
2022/10/01 11:19:07;;;;;;;10.40;5.05;;;28.10;99.90;;;;;;5056374;28;20033;-63
2022/10/01 11:21:54;;;;;;;7.65;3.85;;;28.10;99.90;;;;;;5059598;28;20017;-65
2022/10/01 11:24:48;;;;;;;14.23;4.63;;;28.20;99.90;;;;;;5051124;28;20021;-66
2022/10/01 11:27:31;;;;;;;9.10;3.45;;;28.20;99.90;;;;;;5058241;28;20102;-65
2022/10/01 11:30:17;;;;;;;11.38;4.20;;;28.10;99.90;;;;;;5056752;28;20025;-63
2022/10/01 11:33:17;;;;;;;8.07;4.10;;;28.10;99.90;;;;;;5056636;28;20047;-65
2022/10/01 11:36:10;;;;;;;8.75;4.30;;;28.00;99.90;;;;;;5058835;28;20021;-66
2022/10/01 11:39:02;;;;;;;7.75;3.70;;;28.00;99.90;;;;;;5030970;28;20458;-66
2022/10/01 11:41:44;;;;;;;7.38;3.33;;;28.00;99.90;;;;;;5061966;28;20103;-64
2022/10/01 11:44:29;;;;;;;8.05;3.25;;;28.00;99.90;;;;;;5058188;28;20039;-62
2022/10/01 11:46:59;;;;;;;9.75;3.38;;;28.00;99.90;;;;;;5062482;28;20090;-63
2022/10/01 11:49:48;;;;;;;9.70;3.25;;;28.00;99.90;;;;;;5060500;28;20037;-65
2022/10/01 11:52:37;;;;;;;11.27;3.08;;;28.00;99.90;;;;;;5058074;28;20070;-64
2022/10/01 11:59:12;;;;;;;10.43;3.30;;;27.90;99.90;;;;;;5051770;28;20079;-63
2022/10/01 12:01:47;;;;;;;11.88;3.33;;;28.00;99.90;;;;;;4980723;28;20038;-63
2022/10/01 12:04:28;;;;;;;8.52;3.38;;;27.80;99.90;;;;;;4982067;28;20121;-63
2022/10/01 12:07:15;;;;;;;7.28;3.45;;;27.90;99.90;;;;;;4980127;28;20069;-63
2022/10/01 12:10:06;;;;;;;7.53;3.90;;;28.00;99.90;;;;;;4981004;28;20038;-63
2022/10/01 12:12:54;;;;;;;8.50;5.15;;;28.00;99.90;;;;;;4981387;28;20500;-64
2022/10/01 12:15:31;;;;;;;11.40;5.43;;;27.90;99.90;;;;;;4981062;28;20061;-66
2022/10/01 12:18:10;;;;;;;11.70;6.07;;;28.00;99.90;;;;;;4977918;28;20030;-63
2022/10/01 12:20:46;;;;;;;13.27;5.93;;;27.90;99.90;;;;;;4980872;28;20117;-65
2022/10/01 12:23:16;;;;;;;;;;;27.90;99.90;;;;;;4984673;28;20030;-64
2022/10/01 12:25:50;;;;;;;8.90;5.10;;;27.90;99.90;;;;;;4982275;28;19917;-65
2022/10/01 12:28:33;;;;;;;12.05;4.45;;;27.80;99.90;;;;;;4980561;28;20022;-63
2022/10/01 12:31:06;;;;;;;11.07;4.82;;;27.80;99.90;;;;;;4981470;28;20031;-64
2022/10/01 12:33:45;;;;;;;6.22;4.03;;;27.80;99.90;;;;;;5049394;28;20052;-65
2022/10/01 12:36:24;;;;;;;6.82;3.95;;;27.70;99.90;;;;;;5059522;28;20033;-66
2022/10/01 12:39:18;;;;;;;8.23;4.43;;;27.70;99.90;;;;;;5051984;28;20025;-64
2022/10/01 12:41:51;;;;;;;6.43;4.45;;;27.70;99.90;;;;;;5056374;28;20032;-63
2022/10/01 12:44:36;;;;;;;13.07;4.43;;;27.60;99.90;;;;;;5058284;28;20055;-63
2022/10/01 12:47:35;;;;;;;12.25;4.82;;;27.50;99.90;;;;;;5058805;28;20028;-63
2022/10/01 12:50:32;;;;;;;10.65;5.18;;;27.40;99.90;;;;;;5055962;28;20032;-63
2022/10/01 12:53:19;;;;;;;14.73;6.75;;;27.50;99.90;;;;;;5053807;28;20078;-62
2022/10/01 12:55:53;;;;;;;11.57;6.75;;;27.40;99.90;;;;;;5054993;28;20099;-64
2022/10/01 12:58:35;;;;;;;8.73;6.28;;;27.50;99.90;;;;;;5054719;28;20017;-64
2022/10/01 13:01:13;;;;;;;8.60;5.07;;;27.40;99.90;;;;;;5053616;28;20378;-64
2022/10/01 13:03:58;;;;;;;8.18;4.75;;;27.30;99.90;;;;;;5050730;28;20367;-65
2022/10/01 13:07:09;;;;;;;8.30;4.30;;;27.40;99.90;;;;;;5054891;28;20032;-64
2022/10/01 13:10:00;;;;;;;6.43;3.60;;;27.40;99.90;;;;;;5028928;28;20543;-65
2022/10/01 13:12:48;;;;;;;7.13;4.00;;;27.40;99.90;;;;;;5055418;28;20432;-63
2022/10/01 13:15:26;;;;;;;5.75;3.42;;;27.40;99.90;;;;;;5056957;28;21394;-64
2022/10/01 13:18:11;;;;;;;8.38;4.22;;;27.30;99.90;;;;;;5060053;28;20059;-63
2022/10/01 13:21:04;;;;;;;9.98;4.93;;;27.20;99.90;;;;;;5057918;28;20027;-63